sensor_id;sensor_type;location;lat;lon;timestamp;P1;durP1;ratioP1;P2;durP2;ratioP2
63005;SDS011;53704;52.532;6.426;2023-07-31T00:02:12;5.68;;;2.20;;
63005;SDS011;53704;52.532;6.426;2023-07-31T00:04:37;5.72;;;1.88;;
63005;SDS011;53704;52.532;6.426;2023-07-31T00:07:03;3.78;;;2.60;;
63005;SDS011;53704;52.532;6.426;2023-07-31T00:09:29;2.05;;;1.95;;
63005;SDS011;53704;52.532;6.426;2023-07-31T00:11:54;2.20;;;2.10;;
63005;SDS011;53704;52.532;6.426;2023-07-31T00:14:20;2.00;;;1.90;;
63005;SDS011;53704;52.532;6.426;2023-07-31T00:16:45;3.17;;;2.58;;
63005;SDS011;53704;52.532;6.426;2023-07-31T00:19:10;8.30;;;2.10;;
63005;SDS011;53704;52.532;6.426;2023-07-31T00:21:36;7.75;;;2.17;;
63005;SDS011;53704;52.532;6.426;2023-07-31T00:24:01;3.05;;;2.20;;
63005;SDS011;53704;52.532;6.426;2023-07-31T00:26:27;6.15;;;2.28;;
63005;SDS011;53704;52.532;6.426;2023-07-31T00:28:52;2.50;;;2.33;;
63005;SDS011;53704;52.532;6.426;2023-07-31T00:31:17;8.55;;;2.47;;
63005;SDS011;53704;52.532;6.426;2023-07-31T00:33:43;1.88;;;1.77;;
63005;SDS011;53704;52.532;6.426;2023-07-31T00:36:08;5.72;;;1.80;;
63005;SDS011;53704;52.532;6.426;2023-07-31T00:38:33;1.88;;;1.77;;
63005;SDS011;53704;52.532;6.426;2023-07-31T00:40:59;3.35;;;2.28;;
63005;SDS011;53704;52.532;6.426;2023-07-31T00:43:24;1.88;;;1.77;;
63005;SDS011;53704;52.532;6.426;2023-07-31T00:45:50;3.97;;;2.75;;
63005;SDS011;53704;52.532;6.426;2023-07-31T00:48:15;3.38;;;1.63;;
63005;SDS011;53704;52.532;6.426;2023-07-31T00:50:41;1.60;;;1.50;;
63005;SDS011;53704;52.532;6.426;2023-07-31T00:53:06;4.80;;;1.48;;
63005;SDS011;53704;52.532;6.426;2023-07-31T00:55:32;1.60;;;1.50;;
63005;SDS011;53704;52.532;6.426;2023-07-31T00:57:57;1.60;;;1.50;;
63005;SDS011;53704;52.532;6.426;2023-07-31T01:00:23;1.33;;;1.33;;
63005;SDS011;53704;52.532;6.426;2023-07-31T01:02:49;4.22;;;1.60;;
63005;SDS011;53704;52.532;6.426;2023-07-31T01:05:15;2.72;;;1.38;;
63005;SDS011;53704;52.532;6.426;2023-07-31T01:07:45;5.47;;;1.20;;
63005;SDS011;53704;52.532;6.426;2023-07-31T01:10:23;1.85;;;1.40;;
63005;SDS011;53704;52.532;6.426;2023-07-31T01:12:55;1.30;;;1.30;;
63005;SDS011;53704;52.532;6.426;2023-07-31T01:15:23;4.88;;;1.38;;
63005;SDS011;53704;52.532;6.426;2023-07-31T01:17:48;1.55;;;1.02;;
63005;SDS011;53704;52.532;6.426;2023-07-31T01:20:18;1.30;;;1.30;;
63005;SDS011;53704;52.532;6.426;2023-07-31T01:28:56;1.15;;;1.05;;
63005;SDS011;53704;52.532;6.426;2023-07-31T01:31:32;1.98;;;1.10;;
63005;SDS011;53704;52.532;6.426;2023-07-31T01:34:00;2.47;;;1.15;;
63005;SDS011;53704;52.532;6.426;2023-07-31T01:36:27;1.27;;;1.17;;
63005;SDS011;53704;52.532;6.426;2023-07-31T01:38:57;1.00;;;1.00;;
63005;SDS011;53704;52.532;6.426;2023-07-31T01:41:24;1.02;;;1.02;;
63005;SDS011;53704;52.532;6.426;2023-07-31T01:43:49;4.32;;;1.20;;
63005;SDS011;53704;52.532;6.426;2023-07-31T01:46:14;2.92;;;2.08;;
63005;SDS011;53704;52.532;6.426;2023-07-31T01:48:40;3.90;;;1.27;;
63005;SDS011;53704;52.532;6.426;2023-07-31T01:51:05;4.18;;;1.23;;
63005;SDS011;53704;52.532;6.426;2023-07-31T01:53:31;0.60;;;0.60;;
63005;SDS011;53704;52.532;6.426;2023-07-31T01:55:57;1.15;;;1.05;;
63005;SDS011;53704;52.532;6.426;2023-07-31T01:58:22;4.53;;;1.25;;
63005;SDS011;53704;52.532;6.426;2023-07-31T02:00:48;4.60;;;0.85;;
63005;SDS011;53704;52.532;6.426;2023-07-31T02:03:13;8.45;;;1.00;;
63005;SDS011;53704;52.532;6.426;2023-07-31T02:05:45;1.05;;;0.90;;
63005;SDS011;53704;52.532;6.426;2023-07-31T02:08:11;3.00;;;0.98;;
63005;SDS011;53704;52.532;6.426;2023-07-31T02:10:37;2.97;;;0.98;;
63005;SDS011;53704;52.532;6.426;2023-07-31T02:13:02;1.17;;;1.08;;
63005;SDS011;53704;52.532;6.426;2023-07-31T02:15:29;4.53;;;1.20;;
63005;SDS011;53704;52.532;6.426;2023-07-31T02:17:55;0.80;;;0.80;;
63005;SDS011;53704;52.532;6.426;2023-07-31T02:20:20;0.90;;;0.90;;
63005;SDS011;53704;52.532;6.426;2023-07-31T02:22:45;2.42;;;1.00;;
63005;SDS011;53704;52.532;6.426;2023-07-31T02:25:11;2.97;;;1.25;;
63005;SDS011;53704;52.532;6.426;2023-07-31T02:27:39;3.00;;;1.00;;
63005;SDS011;53704;52.532;6.426;2023-07-31T02:30:05;1.85;;;1.27;;
63005;SDS011;53704;52.532;6.426;2023-07-31T02:32:31;1.90;;;1.08;;
63005;SDS011;53704;52.532;6.426;2023-07-31T02:34:56;4.68;;;0.93;;
63005;SDS011;53704;52.532;6.426;2023-07-31T02:37:21;1.27;;;1.02;;
63005;SDS011;53704;52.532;6.426;2023-07-31T02:39:47;6.10;;;0.90;;
63005;SDS011;53704;52.532;6.426;2023-07-31T02:42:12;2.70;;;0.90;;
63005;SDS011;53704;52.532;6.426;2023-07-31T02:44:38;0.80;;;0.80;;
63005;SDS011;53704;52.532;6.426;2023-07-31T02:47:04;1.10;;;1.00;;
63005;SDS011;53704;52.532;6.426;2023-07-31T02:49:29;2.50;;;0.98;;
63005;SDS011;53704;52.532;6.426;2023-07-31T02:51:55;1.05;;;1.05;;
63005;SDS011;53704;52.532;6.426;2023-07-31T02:54:20;2.55;;;1.10;;
63005;SDS011;53704;52.532;6.426;2023-07-31T02:56:46;1.23;;;1.10;;
63005;SDS011;53704;52.532;6.426;2023-07-31T02:59:12;1.48;;;1.20;;
63005;SDS011;53704;52.532;6.426;2023-07-31T03:01:38;1.45;;;1.10;;
63005;SDS011;53704;52.532;6.426;2023-07-31T03:04:03;2.33;;;1.05;;
63005;SDS011;53704;52.532;6.426;2023-07-31T03:06:29;2.10;;;1.40;;
63005;SDS011;53704;52.532;6.426;2023-07-31T03:08:54;2.00;;;1.20;;
63005;SDS011;53704;52.532;6.426;2023-07-31T03:11:20;16.15;;;1.25;;
63005;SDS011;53704;52.532;6.426;2023-07-31T03:13:45;3.60;;;1.50;;
63005;SDS011;53704;52.532;6.426;2023-07-31T03:16:11;1.23;;;1.10;;
63005;SDS011;53704;52.532;6.426;2023-07-31T03:18:36;2.95;;;1.27;;
63005;SDS011;53704;52.532;6.426;2023-07-31T03:21:02;5.10;;;1.70;;
63005;SDS011;53704;52.532;6.426;2023-07-31T03:23:27;1.30;;;1.20;;
63005;SDS011;53704;52.532;6.426;2023-07-31T03:25:56;4.10;;;1.92;;
63005;SDS011;53704;52.532;6.426;2023-07-31T03:28:25;8.52;;;2.08;;
63005;SDS011;53704;52.532;6.426;2023-07-31T03:30:51;2.83;;;2.00;;
63005;SDS011;53704;52.532;6.426;2023-07-31T03:33:17;2.95;;;1.88;;
63005;SDS011;53704;52.532;6.426;2023-07-31T03:35:42;7.43;;;2.75;;
63005;SDS011;53704;52.532;6.426;2023-07-31T03:38:08;9.68;;;3.50;;
63005;SDS011;53704;52.532;6.426;2023-07-31T03:40:33;12.00;;;4.15;;
63005;SDS011;53704;52.532;6.426;2023-07-31T03:42:59;15.15;;;3.97;;
63005;SDS011;53704;52.532;6.426;2023-07-31T03:45:24;9.07;;;4.18;;
63005;SDS011;53704;52.532;6.426;2023-07-31T03:47:50;18.83;;;4.95;;
63005;SDS011;53704;52.532;6.426;2023-07-31T03:50:15;13.43;;;5.10;;
63005;SDS011;53704;52.532;6.426;2023-07-31T03:52:43;17.02;;;4.50;;
63005;SDS011;53704;52.532;6.426;2023-07-31T03:55:09;21.48;;;6.03;;
63005;SDS011;53704;52.532;6.426;2023-07-31T03:57:34;24.10;;;6.13;;
63005;SDS011;53704;52.532;6.426;2023-07-31T04:00:00;20.13;;;6.07;;
63005;SDS011;53704;52.532;6.426;2023-07-31T04:02:25;21.55;;;6.00;;
63005;SDS011;53704;52.532;6.426;2023-07-31T04:04:50;23.40;;;7.10;;
63005;SDS011;53704;52.532;6.426;2023-07-31T04:07:16;27.67;;;7.57;;
63005;SDS011;53704;52.532;6.426;2023-07-31T04:09:41;28.05;;;6.85;;
63005;SDS011;53704;52.532;6.426;2023-07-31T04:12:07;24.58;;;8.02;;
63005;SDS011;53704;52.532;6.426;2023-07-31T04:14:32;34.90;;;7.95;;
63005;SDS011;53704;52.532;6.426;2023-07-31T04:16:57;41.78;;;8.38;;
63005;SDS011;53704;52.532;6.426;2023-07-31T04:19:24;39.75;;;8.15;;
63005;SDS011;53704;52.532;6.426;2023-07-31T04:21:49;34.08;;;8.65;;
63005;SDS011;53704;52.532;6.426;2023-07-31T04:24:15;33.90;;;8.02;;
63005;SDS011;53704;52.532;6.426;2023-07-31T04:26:40;26.92;;;8.20;;
63005;SDS011;53704;52.532;6.426;2023-07-31T04:29:05;31.73;;;8.43;;
63005;SDS011;53704;52.532;6.426;2023-07-31T04:31:31;28.85;;;9.05;;
63005;SDS011;53704;52.532;6.426;2023-07-31T04:33:56;39.92;;;9.90;;
63005;SDS011;53704;52.532;6.426;2023-07-31T04:36:22;45.47;;;10.40;;
63005;SDS011;53704;52.532;6.426;2023-07-31T04:38:47;47.83;;;9.73;;
63005;SDS011;53704;52.532;6.426;2023-07-31T04:41:12;45.58;;;9.52;;
63005;SDS011;53704;52.532;6.426;2023-07-31T04:43:38;37.90;;;13.32;;
63005;SDS011;53704;52.532;6.426;2023-07-31T04:46:05;40.00;;;9.60;;
63005;SDS011;53704;52.532;6.426;2023-07-31T04:48:30;42.03;;;10.57;;
63005;SDS011;53704;52.532;6.426;2023-07-31T04:50:55;47.85;;;10.75;;
63005;SDS011;53704;52.532;6.426;2023-07-31T04:53:21;34.80;;;9.20;;
63005;SDS011;53704;52.532;6.426;2023-07-31T04:55:46;37.80;;;10.57;;
63005;SDS011;53704;52.532;6.426;2023-07-31T04:58:12;43.53;;;10.98;;
63005;SDS011;53704;52.532;6.426;2023-07-31T05:00:37;45.05;;;9.98;;
63005;SDS011;53704;52.532;6.426;2023-07-31T05:03:03;48.15;;;10.80;;
63005;SDS011;53704;52.532;6.426;2023-07-31T05:05:28;35.03;;;10.25;;
63005;SDS011;53704;52.532;6.426;2023-07-31T05:07:53;56.65;;;11.93;;
63005;SDS011;53704;52.532;6.426;2023-07-31T05:10:19;38.35;;;10.77;;
63005;SDS011;53704;52.532;6.426;2023-07-31T05:12:44;48.17;;;10.93;;
63005;SDS011;53704;52.532;6.426;2023-07-31T05:15:10;48.75;;;11.48;;
63005;SDS011;53704;52.532;6.426;2023-07-31T05:17:35;42.47;;;10.95;;
63005;SDS011;53704;52.532;6.426;2023-07-31T05:20:01;48.75;;;12.43;;
63005;SDS011;53704;52.532;6.426;2023-07-31T05:22:26;51.08;;;11.27;;
63005;SDS011;53704;52.532;6.426;2023-07-31T05:24:51;46.83;;;11.32;;
63005;SDS011;53704;52.532;6.426;2023-07-31T05:27:19;49.08;;;12.13;;
63005;SDS011;53704;52.532;6.426;2023-07-31T05:29:44;49.13;;;13.13;;
63005;SDS011;53704;52.532;6.426;2023-07-31T05:32:10;50.70;;;12.38;;
63005;SDS011;53704;52.532;6.426;2023-07-31T05:34:36;55.35;;;13.63;;
63005;SDS011;53704;52.532;6.426;2023-07-31T05:37:01;58.60;;;12.85;;
63005;SDS011;53704;52.532;6.426;2023-07-31T05:39:26;43.40;;;12.05;;
63005;SDS011;53704;52.532;6.426;2023-07-31T05:41:52;45.25;;;12.48;;
63005;SDS011;53704;52.532;6.426;2023-07-31T05:44:17;34.58;;;11.98;;
63005;SDS011;53704;52.532;6.426;2023-07-31T05:46:43;55.60;;;13.35;;
63005;SDS011;53704;52.532;6.426;2023-07-31T05:49:08;41.38;;;12.10;;
63005;SDS011;53704;52.532;6.426;2023-07-31T05:51:33;43.00;;;11.80;;
63005;SDS011;53704;52.532;6.426;2023-07-31T05:53:59;50.38;;;11.73;;
63005;SDS011;53704;52.532;6.426;2023-07-31T05:56:25;42.45;;;11.27;;
63005;SDS011;53704;52.532;6.426;2023-07-31T05:58:52;43.85;;;11.57;;
63005;SDS011;53704;52.532;6.426;2023-07-31T06:01:17;45.13;;;11.23;;
63005;SDS011;53704;52.532;6.426;2023-07-31T06:03:43;44.17;;;12.20;;
63005;SDS011;53704;52.532;6.426;2023-07-31T06:06:09;38.92;;;11.50;;
63005;SDS011;53704;52.532;6.426;2023-07-31T06:08:34;34.05;;;11.38;;
63005;SDS011;53704;52.532;6.426;2023-07-31T06:11:00;34.35;;;10.43;;
63005;SDS011;53704;52.532;6.426;2023-07-31T06:13:25;45.20;;;12.25;;
63005;SDS011;53704;52.532;6.426;2023-07-31T06:15:50;46.30;;;10.43;;
63005;SDS011;53704;52.532;6.426;2023-07-31T06:18:16;39.70;;;10.95;;
63005;SDS011;53704;52.532;6.426;2023-07-31T06:20:41;33.65;;;11.13;;
63005;SDS011;53704;52.532;6.426;2023-07-31T06:23:07;37.08;;;10.95;;
63005;SDS011;53704;52.532;6.426;2023-07-31T06:25:33;41.83;;;10.10;;
63005;SDS011;53704;52.532;6.426;2023-07-31T06:27:58;29.67;;;10.02;;
63005;SDS011;53704;52.532;6.426;2023-07-31T06:30:24;34.40;;;9.43;;
63005;SDS011;53704;52.532;6.426;2023-07-31T06:32:49;29.13;;;9.20;;
63005;SDS011;53704;52.532;6.426;2023-07-31T06:35:14;27.52;;;9.13;;
63005;SDS011;53704;52.532;6.426;2023-07-31T06:37:40;31.15;;;9.07;;
63005;SDS011;53704;52.532;6.426;2023-07-31T06:40:08;20.48;;;7.50;;
63005;SDS011;53704;52.532;6.426;2023-07-31T06:42:34;27.17;;;8.75;;
63005;SDS011;53704;52.532;6.426;2023-07-31T06:45:00;21.35;;;8.40;;
63005;SDS011;53704;52.532;6.426;2023-07-31T06:47:26;18.10;;;7.53;;
63005;SDS011;53704;52.532;6.426;2023-07-31T06:49:52;32.28;;;8.23;;
63005;SDS011;53704;52.532;6.426;2023-07-31T06:52:17;21.63;;;8.05;;
63005;SDS011;53704;52.532;6.426;2023-07-31T06:54:42;24.42;;;7.65;;
63005;SDS011;53704;52.532;6.426;2023-07-31T06:57:08;23.88;;;7.57;;
63005;SDS011;53704;52.532;6.426;2023-07-31T06:59:33;23.98;;;7.07;;
63005;SDS011;53704;52.532;6.426;2023-07-31T07:01:59;20.88;;;7.07;;
63005;SDS011;53704;52.532;6.426;2023-07-31T07:04:24;21.88;;;7.97;;
63005;SDS011;53704;52.532;6.426;2023-07-31T07:06:49;25.50;;;9.35;;
63005;SDS011;53704;52.532;6.426;2023-07-31T07:09:15;21.23;;;7.88;;
63005;SDS011;53704;52.532;6.426;2023-07-31T07:11:40;23.75;;;7.97;;
63005;SDS011;53704;52.532;6.426;2023-07-31T07:14:06;22.08;;;7.78;;
63005;SDS011;53704;52.532;6.426;2023-07-31T07:16:31;17.35;;;7.18;;
63005;SDS011;53704;52.532;6.426;2023-07-31T07:18:57;17.40;;;6.82;;
63005;SDS011;53704;52.532;6.426;2023-07-31T07:21:22;16.67;;;6.95;;
63005;SDS011;53704;52.532;6.426;2023-07-31T07:23:48;16.38;;;6.70;;
63005;SDS011;53704;52.532;6.426;2023-07-31T07:26:13;12.93;;;5.93;;
63005;SDS011;53704;52.532;6.426;2023-07-31T07:28:39;20.80;;;6.65;;
63005;SDS011;53704;52.532;6.426;2023-07-31T07:31:04;18.25;;;6.80;;
63005;SDS011;53704;52.532;6.426;2023-07-31T07:33:30;10.20;;;5.90;;
63005;SDS011;53704;52.532;6.426;2023-07-31T07:35:55;10.13;;;5.53;;
63005;SDS011;53704;52.532;6.426;2023-07-31T07:38:25;9.35;;;5.53;;
63005;SDS011;53704;52.532;6.426;2023-07-31T07:40:54;11.75;;;5.68;;
63005;SDS011;53704;52.532;6.426;2023-07-31T07:43:19;10.48;;;5.25;;
63005;SDS011;53704;52.532;6.426;2023-07-31T07:45:44;9.00;;;5.00;;
63005;SDS011;53704;52.532;6.426;2023-07-31T07:48:10;10.35;;;5.05;;
63005;SDS011;53704;52.532;6.426;2023-07-31T07:50:35;6.15;;;4.45;;
63005;SDS011;53704;52.532;6.426;2023-07-31T07:53:03;7.72;;;4.45;;
63005;SDS011;53704;52.532;6.426;2023-07-31T07:55:28;7.20;;;4.60;;
63005;SDS011;53704;52.532;6.426;2023-07-31T07:57:54;5.85;;;3.60;;
63005;SDS011;53704;52.532;6.426;2023-07-31T08:00:19;5.80;;;4.07;;
63005;SDS011;53704;52.532;6.426;2023-07-31T08:02:44;5.03;;;4.05;;
63005;SDS011;53704;52.532;6.426;2023-07-31T08:05:10;6.30;;;4.07;;
63005;SDS011;53704;52.532;6.426;2023-07-31T08:07:35;5.10;;;3.40;;
63005;SDS011;53704;52.532;6.426;2023-07-31T08:10:01;6.53;;;4.35;;
63005;SDS011;53704;52.532;6.426;2023-07-31T08:12:27;5.35;;;3.67;;
63005;SDS011;53704;52.532;6.426;2023-07-31T08:14:52;4.57;;;3.33;;
63005;SDS011;53704;52.532;6.426;2023-07-31T08:17:18;5.00;;;3.10;;
63005;SDS011;53704;52.532;6.426;2023-07-31T08:19:43;4.60;;;3.45;;
63005;SDS011;53704;52.532;6.426;2023-07-31T08:22:09;3.40;;;3.10;;
63005;SDS011;53704;52.532;6.426;2023-07-31T08:24:34;3.40;;;3.10;;
63005;SDS011;53704;52.532;6.426;2023-07-31T08:27:00;7.57;;;3.30;;
63005;SDS011;53704;52.532;6.426;2023-07-31T08:29:25;4.35;;;2.72;;
63005;SDS011;53704;52.532;6.426;2023-07-31T08:31:51;5.78;;;2.50;;
63005;SDS011;53704;52.532;6.426;2023-07-31T08:34:16;3.10;;;2.70;;
63005;SDS011;53704;52.532;6.426;2023-07-31T08:36:41;2.88;;;2.47;;
63005;SDS011;53704;52.532;6.426;2023-07-31T08:39:07;3.63;;;2.33;;
63005;SDS011;53704;52.532;6.426;2023-07-31T08:41:37;5.22;;;2.00;;
63005;SDS011;53704;52.532;6.426;2023-07-31T08:44:04;2.33;;;2.13;;
63005;SDS011;53704;52.532;6.426;2023-07-31T08:46:30;2.00;;;1.90;;
63005;SDS011;53704;52.532;6.426;2023-07-31T08:48:56;2.20;;;2.00;;
63005;SDS011;53704;52.532;6.426;2023-07-31T08:51:23;2.42;;;2.22;;
63005;SDS011;53704;52.532;6.426;2023-07-31T08:53:49;2.20;;;2.03;;
63005;SDS011;53704;52.532;6.426;2023-07-31T08:56:14;1.90;;;1.80;;
63005;SDS011;53704;52.532;6.426;2023-07-31T08:58:41;2.03;;;1.80;;
63005;SDS011;53704;52.532;6.426;2023-07-31T09:01:08;1.80;;;1.55;;
63005;SDS011;53704;52.532;6.426;2023-07-31T09:03:34;1.60;;;1.50;;
63005;SDS011;53704;52.532;6.426;2023-07-31T09:06:01;2.40;;;1.58;;
63005;SDS011;53704;52.532;6.426;2023-07-31T09:08:30;2.08;;;1.88;;
63005;SDS011;53704;52.532;6.426;2023-07-31T09:10:58;1.58;;;1.48;;
63005;SDS011;53704;52.532;6.426;2023-07-31T09:13:25;1.60;;;1.48;;
63005;SDS011;53704;52.532;6.426;2023-07-31T09:15:51;1.17;;;1.17;;
63005;SDS011;53704;52.532;6.426;2023-07-31T09:18:17;1.00;;;1.00;;
63005;SDS011;53704;52.532;6.426;2023-07-31T09:20:44;1.13;;;1.10;;
63005;SDS011;53704;52.532;6.426;2023-07-31T09:23:11;1.50;;;1.40;;
63005;SDS011;53704;52.532;6.426;2023-07-31T09:25:38;1.67;;;1.13;;
63005;SDS011;53704;52.532;6.426;2023-07-31T09:28:08;1.30;;;1.30;;
63005;SDS011;53704;52.532;6.426;2023-07-31T09:30:48;1.45;;;1.30;;
63005;SDS011;53704;52.532;6.426;2023-07-31T09:33:15;1.35;;;1.30;;
63005;SDS011;53704;52.532;6.426;2023-07-31T09:35:41;1.60;;;1.50;;
63005;SDS011;53704;52.532;6.426;2023-07-31T09:38:14;1.85;;;1.60;;
63005;SDS011;53704;52.532;6.426;2023-07-31T09:40:45;1.60;;;1.50;;
63005;SDS011;53704;52.532;6.426;2023-07-31T09:43:18;1.50;;;1.40;;
63005;SDS011;53704;52.532;6.426;2023-07-31T09:45:45;1.60;;;1.50;;
63005;SDS011;53704;52.532;6.426;2023-07-31T09:48:13;3.67;;;2.03;;
63005;SDS011;53704;52.532;6.426;2023-07-31T09:50:42;2.63;;;1.55;;
63005;SDS011;53704;52.532;6.426;2023-07-31T09:53:11;1.80;;;1.70;;
63005;SDS011;53704;52.532;6.426;2023-07-31T09:55:38;1.77;;;1.67;;
63005;SDS011;53704;52.532;6.426;2023-07-31T09:58:05;1.95;;;1.85;;
63005;SDS011;53704;52.532;6.426;2023-07-31T10:00:33;3.53;;;1.60;;
63005;SDS011;53704;52.532;6.426;2023-07-31T10:03:00;1.60;;;1.60;;
63005;SDS011;53704;52.532;6.426;2023-07-31T10:05:31;1.75;;;1.58;;
63005;SDS011;53704;52.532;6.426;2023-07-31T10:08:00;2.15;;;1.75;;
63005;SDS011;53704;52.532;6.426;2023-07-31T10:10:25;3.95;;;1.83;;
63005;SDS011;53704;52.532;6.426;2023-07-31T10:12:53;2.00;;;1.90;;
63005;SDS011;53704;52.532;6.426;2023-07-31T10:15:19;2.00;;;1.90;;
63005;SDS011;53704;52.532;6.426;2023-07-31T10:17:46;2.45;;;2.33;;
63005;SDS011;53704;52.532;6.426;2023-07-31T10:20:14;2.97;;;2.17;;
63005;SDS011;53704;52.532;6.426;2023-07-31T10:22:41;2.00;;;1.90;;
63005;SDS011;53704;52.532;6.426;2023-07-31T10:25:08;2.55;;;2.35;;
63005;SDS011;53704;52.532;6.426;2023-07-31T10:27:35;2.45;;;2.30;;
63005;SDS011;53704;52.532;6.426;2023-07-31T10:30:01;2.95;;;2.28;;
63005;SDS011;53704;52.532;6.426;2023-07-31T10:32:30;2.08;;;1.98;;
63005;SDS011;53704;52.532;6.426;2023-07-31T10:34:56;3.55;;;2.13;;
63005;SDS011;53704;52.532;6.426;2023-07-31T10:37:23;2.10;;;2.00;;
63005;SDS011;53704;52.532;6.426;2023-07-31T10:42:29;1.63;;;1.52;;
63005;SDS011;53704;52.532;6.426;2023-07-31T10:44:57;1.80;;;1.70;;
63005;SDS011;53704;52.532;6.426;2023-07-31T10:47:24;1.17;;;1.17;;
63005;SDS011;53704;52.532;6.426;2023-07-31T10:49:49;1.60;;;1.48;;
63005;SDS011;53704;52.532;6.426;2023-07-31T10:52:19;1.40;;;1.40;;
63005;SDS011;53704;52.532;6.426;2023-07-31T10:57:40;1.50;;;1.50;;
63005;SDS011;53704;52.532;6.426;2023-07-31T11:02:59;1.60;;;1.60;;
63005;SDS011;53704;52.532;6.426;2023-07-31T11:10:48;2.90;;;1.85;;
63005;SDS011;53704;52.532;6.426;2023-07-31T11:13:39;2.08;;;1.98;;
63005;SDS011;53704;52.532;6.426;2023-07-31T11:16:18;1.92;;;1.83;;
63005;SDS011;53704;52.532;6.426;2023-07-31T11:18:45;2.28;;;1.67;;
63005;SDS011;53704;52.532;6.426;2023-07-31T11:21:16;3.08;;;1.80;;
63005;SDS011;53704;52.532;6.426;2023-07-31T11:23:51;6.80;;;1.80;;
63005;SDS011;53704;52.532;6.426;2023-07-31T11:26:25;2.50;;;2.28;;
63005;SDS011;53704;52.532;6.426;2023-07-31T11:28:52;2.33;;;2.22;;
63005;SDS011;53704;52.532;6.426;2023-07-31T11:31:18;3.28;;;2.47;;
63005;SDS011;53704;52.532;6.426;2023-07-31T11:33:44;2.28;;;2.17;;
63005;SDS011;53704;52.532;6.426;2023-07-31T11:36:16;2.20;;;2.10;;
63005;SDS011;53704;52.532;6.426;2023-07-31T11:38:43;3.05;;;2.70;;
63005;SDS011;53704;52.532;6.426;2023-07-31T11:41:08;3.08;;;2.88;;
63005;SDS011;53704;52.532;6.426;2023-07-31T11:43:34;3.03;;;2.80;;
63005;SDS011;53704;52.532;6.426;2023-07-31T11:46:01;3.22;;;2.92;;
63005;SDS011;53704;52.532;6.426;2023-07-31T11:48:36;3.35;;;3.25;;
63005;SDS011;53704;52.532;6.426;2023-07-31T11:51:03;4.18;;;2.83;;
63005;SDS011;53704;52.532;6.426;2023-07-31T11:53:31;3.22;;;3.03;;
63005;SDS011;53704;52.532;6.426;2023-07-31T11:56:00;7.47;;;3.50;;
63005;SDS011;53704;52.532;6.426;2023-07-31T11:58:29;6.95;;;3.63;;
63005;SDS011;53704;52.532;6.426;2023-07-31T12:00:56;4.53;;;3.55;;
63005;SDS011;53704;52.532;6.426;2023-07-31T12:03:23;5.10;;;3.80;;
63005;SDS011;53704;52.532;6.426;2023-07-31T12:05:48;4.35;;;4.05;;
63005;SDS011;53704;52.532;6.426;2023-07-31T12:08:14;4.10;;;3.90;;
63005;SDS011;53704;52.532;6.426;2023-07-31T12:10:41;3.47;;;3.30;;
63005;SDS011;53704;52.532;6.426;2023-07-31T12:13:10;4.85;;;3.83;;
63005;SDS011;53704;52.532;6.426;2023-07-31T12:15:40;3.47;;;3.28;;
63005;SDS011;53704;52.532;6.426;2023-07-31T12:18:08;5.35;;;3.88;;
63005;SDS011;53704;52.532;6.426;2023-07-31T12:20:45;4.45;;;4.15;;
63005;SDS011;53704;52.532;6.426;2023-07-31T12:23:19;4.32;;;4.03;;
63005;SDS011;53704;52.532;6.426;2023-07-31T12:28:54;3.70;;;3.47;;
63005;SDS011;53704;52.532;6.426;2023-07-31T12:31:22;3.72;;;3.42;;
63005;SDS011;53704;52.532;6.426;2023-07-31T12:33:49;3.67;;;3.35;;
63005;SDS011;53704;52.532;6.426;2023-07-31T12:36:16;3.40;;;3.05;;
63005;SDS011;53704;52.532;6.426;2023-07-31T12:38:45;3.50;;;3.20;;
63005;SDS011;53704;52.532;6.426;2023-07-31T12:41:11;3.13;;;2.83;;
63005;SDS011;53704;52.532;6.426;2023-07-31T12:43:38;4.60;;;3.05;;
63005;SDS011;53704;52.532;6.426;2023-07-31T12:46:05;4.18;;;3.78;;
63005;SDS011;53704;52.532;6.426;2023-07-31T12:48:32;3.80;;;3.60;;
63005;SDS011;53704;52.532;6.426;2023-07-31T12:50:58;5.63;;;4.72;;
63005;SDS011;53704;52.532;6.426;2023-07-31T12:53:23;4.60;;;4.20;;
63005;SDS011;53704;52.532;6.426;2023-07-31T12:55:49;4.18;;;3.88;;
63005;SDS011;53704;52.532;6.426;2023-07-31T12:58:15;4.57;;;4.32;;
63005;SDS011;53704;52.532;6.426;2023-07-31T13:00:40;5.47;;;3.90;;
63005;SDS011;53704;52.532;6.426;2023-07-31T13:03:06;3.80;;;3.45;;
63005;SDS011;53704;52.532;6.426;2023-07-31T13:05:31;4.55;;;3.80;;
63005;SDS011;53704;52.532;6.426;2023-07-31T13:07:57;3.88;;;3.45;;
63005;SDS011;53704;52.532;6.426;2023-07-31T13:10:22;3.30;;;3.10;;
63005;SDS011;53704;52.532;6.426;2023-07-31T13:12:48;3.35;;;2.70;;
63005;SDS011;53704;52.532;6.426;2023-07-31T13:15:14;3.85;;;3.03;;
63005;SDS011;53704;52.532;6.426;2023-07-31T13:17:39;3.47;;;3.13;;
63005;SDS011;53704;52.532;6.426;2023-07-31T13:20:06;2.65;;;2.45;;
63005;SDS011;53704;52.532;6.426;2023-07-31T13:22:32;2.47;;;2.28;;
63005;SDS011;53704;52.532;6.426;2023-07-31T13:24:58;3.88;;;2.50;;
63005;SDS011;53704;52.532;6.426;2023-07-31T13:27:23;2.45;;;2.17;;
63005;SDS011;53704;52.532;6.426;2023-07-31T13:29:51;2.10;;;2.00;;
63005;SDS011;53704;52.532;6.426;2023-07-31T13:32:17;2.03;;;1.80;;
63005;SDS011;53704;52.532;6.426;2023-07-31T13:34:43;3.72;;;1.98;;
63005;SDS011;53704;52.532;6.426;2023-07-31T13:37:09;2.05;;;1.85;;
63005;SDS011;53704;52.532;6.426;2023-07-31T13:39:34;6.25;;;2.42;;
63005;SDS011;53704;52.532;6.426;2023-07-31T13:42:00;1.95;;;1.85;;
63005;SDS011;53704;52.532;6.426;2023-07-31T13:44:27;3.85;;;1.63;;
63005;SDS011;53704;52.532;6.426;2023-07-31T13:46:52;6.28;;;1.55;;
63005;SDS011;53704;52.532;6.426;2023-07-31T13:49:18;1.60;;;1.50;;
63005;SDS011;53704;52.532;6.426;2023-07-31T13:51:43;2.20;;;1.50;;
63005;SDS011;53704;52.532;6.426;2023-07-31T13:54:08;3.03;;;1.50;;
63005;SDS011;53704;52.532;6.426;2023-07-31T13:56:36;1.70;;;1.60;;
63005;SDS011;53704;52.532;6.426;2023-07-31T13:59:01;1.40;;;1.40;;
63005;SDS011;53704;52.532;6.426;2023-07-31T14:01:27;1.80;;;1.70;;
63005;SDS011;53704;52.532;6.426;2023-07-31T14:03:52;1.77;;;1.67;;
63005;SDS011;53704;52.532;6.426;2023-07-31T14:06:18;1.65;;;1.40;;
63005;SDS011;53704;52.532;6.426;2023-07-31T14:08:44;1.70;;;1.60;;
63005;SDS011;53704;52.532;6.426;2023-07-31T14:11:09;7.38;;;1.85;;
63005;SDS011;53704;52.532;6.426;2023-07-31T14:13:35;1.63;;;1.52;;
63005;SDS011;53704;52.532;6.426;2023-07-31T14:16:00;1.92;;;1.83;;
63005;SDS011;53704;52.532;6.426;2023-07-31T14:18:26;2.03;;;1.92;;
63005;SDS011;53704;52.532;6.426;2023-07-31T14:20:51;1.45;;;1.35;;
63005;SDS011;53704;52.532;6.426;2023-07-31T14:23:17;1.75;;;1.65;;
63005;SDS011;53704;52.532;6.426;2023-07-31T14:25:42;2.92;;;1.83;;
63005;SDS011;53704;52.532;6.426;2023-07-31T14:28:08;2.10;;;1.95;;
63005;SDS011;53704;52.532;6.426;2023-07-31T14:30:33;5.50;;;2.35;;
63005;SDS011;53704;52.532;6.426;2023-07-31T14:32:58;4.55;;;2.00;;
63005;SDS011;53704;52.532;6.426;2023-07-31T14:35:25;5.35;;;2.33;;
63005;SDS011;53704;52.532;6.426;2023-07-31T14:37:51;2.25;;;2.15;;
63005;SDS011;53704;52.532;6.426;2023-07-31T14:40:16;2.45;;;2.35;;
63005;SDS011;53704;52.532;6.426;2023-07-31T14:42:41;2.95;;;2.75;;
63005;SDS011;53704;52.532;6.426;2023-07-31T14:45:07;2.90;;;2.70;;
63005;SDS011;53704;52.532;6.426;2023-07-31T14:47:35;2.67;;;2.58;;
63005;SDS011;53704;52.532;6.426;2023-07-31T14:50:01;3.63;;;3.33;;
63005;SDS011;53704;52.532;6.426;2023-07-31T14:52:28;3.42;;;3.10;;
63005;SDS011;53704;52.532;6.426;2023-07-31T14:54:53;3.22;;;2.92;;
63005;SDS011;53704;52.532;6.426;2023-07-31T14:57:19;7.43;;;3.03;;
63005;SDS011;53704;52.532;6.426;2023-07-31T14:59:45;4.00;;;3.70;;
63005;SDS011;53704;52.532;6.426;2023-07-31T15:02:11;3.95;;;3.65;;